createdAt,value
2024-03-04T00:02:11.274Z,8.98
2024-03-04T00:07:15.640Z,8.97
2024-03-04T00:12:18.190Z,8.95
2024-03-04T00:17:21.160Z,8.94
2024-03-04T00:22:25.091Z,8.91
2024-03-04T00:27:27.950Z,8.92
2024-03-04T00:32:30.882Z,8.90
2024-03-04T00:37:34.870Z,8.88
2024-03-04T00:42:39.339Z,8.83
2024-03-04T00:47:42.064Z,8.81
2024-03-04T00:52:46.434Z,8.77
2024-03-04T00:57:49.001Z,8.76
2024-03-04T01:02:54.387Z,8.76
2024-03-04T01:07:58.325Z,8.72
2024-03-04T01:13:00.966Z,8.75
2024-03-04T01:18:05.389Z,8.72
2024-03-04T01:23:09.806Z,8.73
2024-03-04T01:28:12.981Z,8.68
2024-03-04T01:33:15.557Z,8.62
2024-03-04T01:38:19.484Z,8.63
2024-03-04T01:43:22.424Z,8.61
2024-03-04T01:48:25.430Z,8.62
2024-03-04T01:53:29.981Z,8.64
2024-03-04T01:58:32.952Z,8.64
2024-03-04T02:03:36.611Z,8.62
2024-03-04T02:08:40.528Z,8.60
2024-03-04T02:13:43.487Z,8.59
2024-03-04T02:18:46.316Z,8.60
2024-03-04T02:23:50.188Z,8.64
2024-03-04T02:28:52.763Z,8.65
2024-03-04T02:33:55.639Z,8.66
2024-03-04T02:38:59.819Z,8.64
2024-03-04T02:44:02.405Z,8.64
2024-03-04T02:49:05.050Z,8.63
2024-03-04T02:54:09.375Z,8.63
2024-03-04T02:59:11.914Z,8.60
2024-03-04T03:04:15.224Z,8.57
2024-03-04T03:09:19.474Z,8.59
2024-03-04T03:14:21.998Z,8.56
2024-03-04T03:19:25.505Z,8.54
2024-03-04T03:24:29.386Z,8.54
2024-03-04T03:29:31.917Z,8.48
2024-03-04T03:34:34.605Z,8.43
2024-03-04T03:39:38.531Z,8.33
2024-03-04T03:44:41.069Z,8.31
2024-03-04T03:49:43.722Z,8.29
2024-03-04T03:54:47.876Z,8.26
2024-03-04T03:59:50.469Z,8.25
2024-03-04T04:04:53.029Z,8.25
2024-03-04T04:09:56.907Z,8.25
2024-03-04T04:14:59.460Z,8.25
2024-03-04T04:20:02.303Z,8.23
2024-03-04T04:25:07.635Z,8.21
2024-03-04T04:30:12.626Z,8.18
2024-03-04T04:35:15.206Z,8.14
2024-03-04T04:40:21.225Z,8.07
2024-03-04T04:45:27.251Z,8.00
2024-03-04T04:50:29.879Z,7.98
2024-03-04T04:55:33.801Z,7.94
2024-03-04T05:00:36.491Z,7.94
2024-03-04T05:05:39.090Z,7.91
2024-03-04T05:10:43.190Z,7.88
2024-03-04T05:15:45.721Z,7.84
2024-03-04T05:20:55.798Z,7.90
2024-03-04T05:26:01.718Z,7.94
2024-03-04T05:31:04.562Z,7.94
2024-03-04T05:36:09.705Z,7.90
2024-03-04T05:41:13.758Z,7.89
2024-03-04T05:46:16.398Z,7.86
2024-03-04T05:51:18.950Z,7.82
2024-03-04T05:56:23.557Z,7.79
2024-03-04T06:01:26.164Z,7.76
2024-03-04T06:06:28.884Z,7.73
2024-03-04T06:11:33.128Z,7.63
2024-03-04T06:16:35.888Z,7.59
2024-03-04T06:21:38.508Z,7.61
2024-03-04T06:26:44.198Z,7.65
2024-03-04T06:31:46.975Z,7.66
2024-03-04T06:36:49.731Z,7.67
2024-03-04T06:41:53.691Z,7.64
2024-03-04T06:46:56.283Z,7.58
2024-03-04T06:51:58.931Z,7.53
2024-03-04T06:57:02.910Z,7.50
2024-03-04T07:02:06.058Z,7.50
2024-03-04T07:07:08.699Z,7.49
2024-03-04T07:12:12.552Z,7.59
2024-03-04T07:17:15.112Z,7.69
2024-03-04T07:22:17.693Z,7.64
2024-03-04T07:27:21.588Z,7.73
2024-03-04T07:32:24.313Z,7.68
2024-03-04T07:37:26.887Z,7.76
2024-03-04T07:42:30.779Z,7.83
2024-03-04T07:47:33.378Z,7.88
2024-03-04T07:52:36.046Z,7.90
2024-03-04T07:57:41.403Z,7.99
2024-03-04T08:02:44.470Z,8.06
2024-03-04T08:07:47.071Z,8.14
2024-03-04T08:12:50.943Z,8.08
2024-03-04T08:17:55.888Z,8.19
2024-03-04T08:22:59.889Z,8.34
2024-03-04T08:28:04.856Z,8.33
2024-03-04T08:33:09.477Z,8.40
2024-03-04T08:38:12.889Z,8.49
2024-03-04T08:43:16.803Z,8.64
2024-03-04T08:48:19.460Z,8.73
2024-03-04T08:53:22.005Z,8.73
2024-03-04T08:58:25.932Z,8.87
2024-03-04T09:03:28.509Z,8.96
2024-03-04T09:08:31.039Z,9.11
2024-03-04T09:13:34.920Z,9.09
2024-03-04T09:18:41.240Z,9.23
2024-03-04T09:23:44.087Z,9.40
2024-03-04T09:28:52.515Z,9.49
2024-03-04T09:33:55.300Z,9.57
2024-03-04T09:38:57.842Z,9.65
2024-03-04T09:44:01.911Z,9.75
2024-03-04T09:49:06.117Z,9.86
2024-03-04T09:54:09.939Z,9.93
2024-03-04T09:59:14.088Z,10.11
2024-03-04T10:04:17.171Z,10.27
2024-03-04T10:09:19.777Z,10.29
2024-03-04T10:14:23.705Z,10.32
2024-03-04T10:19:26.324Z,10.43
2024-03-04T10:24:28.943Z,10.55
2024-03-04T10:29:32.833Z,10.68
2024-03-04T10:34:35.400Z,10.69
2024-03-04T10:39:38.561Z,10.80
2024-03-04T10:44:43.856Z,10.97
2024-03-04T10:49:46.739Z,11.02
2024-03-04T10:54:49.384Z,11.10
2024-03-04T10:59:55.653Z,11.22
2024-03-04T11:05:02.799Z,11.38
2024-03-04T11:10:16.774Z,11.34
2024-03-04T11:15:22.665Z,11.45
2024-03-04T11:20:26.563Z,11.57
2024-03-04T11:25:30.608Z,11.56
2024-03-04T11:30:36.707Z,11.51
2024-03-04T11:35:39.250Z,11.63
2024-03-04T11:40:41.781Z,11.73
2024-03-04T11:45:45.692Z,11.85
2024-03-04T11:50:48.436Z,11.91
2024-03-04T11:55:51.593Z,11.98
2024-03-04T12:01:03.989Z,12.02
2024-03-04T12:06:13.971Z,12.11
2024-03-04T12:11:19.902Z,11.97
2024-03-04T12:16:24.006Z,12.02
2024-03-04T12:21:26.819Z,12.07
2024-03-04T12:26:29.495Z,12.10
2024-03-04T12:31:34.006Z,12.12
2024-03-04T12:36:37.726Z,12.17
2024-03-04T12:41:41.877Z,12.24
2024-03-04T12:46:47.635Z,12.21
2024-03-04T12:51:50.183Z,12.16
2024-03-04T12:56:52.715Z,12.14
2024-03-04T13:01:56.735Z,12.20
2024-03-04T13:06:59.320Z,12.16
2024-03-04T13:12:01.865Z,12.29
2024-03-04T13:17:05.930Z,12.40
2024-03-04T13:22:08.484Z,12.28
2024-03-04T13:27:11.835Z,12.29
2024-03-04T13:32:16.026Z,12.16
2024-03-04T13:37:18.566Z,12.05
2024-03-04T13:42:21.189Z,11.82
2024-03-04T13:47:25.074Z,11.72
2024-03-04T13:52:27.990Z,11.60
2024-03-04T13:57:30.543Z,11.51
2024-03-04T14:02:34.369Z,11.43
2024-03-04T14:07:36.973Z,11.23
2024-03-04T14:12:41.101Z,10.89
2024-03-04T14:17:45.057Z,10.74
2024-03-04T14:22:47.666Z,10.44
2024-03-04T14:27:50.484Z,10.19
2024-03-04T14:32:54.418Z,9.94
2024-03-04T14:37:57.007Z,9.82
2024-03-04T14:43:00.836Z,9.68
2024-03-04T14:48:07.530Z,9.64
2024-03-04T14:53:11.293Z,9.43
2024-03-04T14:58:13.905Z,9.23
2024-03-04T15:09:40.404Z,8.96
2024-03-04T15:14:44.350Z,8.90
2024-03-04T15:19:47.198Z,8.73
2024-03-04T15:24:51.782Z,8.55
2024-03-04T15:29:54.448Z,8.41
2024-03-04T15:34:57.118Z,8.23
2024-03-04T15:40:01.258Z,8.02
2024-03-04T15:45:05.724Z,7.94
2024-03-04T15:50:13.392Z,7.88
2024-03-04T16:00:47.018Z,7.90
2024-03-04T16:05:50.170Z,7.75
2024-03-04T16:10:54.378Z,7.54
2024-03-04T16:15:59.416Z,7.38
2024-03-04T16:21:02.800Z,7.17
2024-03-04T16:26:09.426Z,7.07
2024-03-04T16:31:12.264Z,6.97
2024-03-04T16:36:17.721Z,6.79
2024-03-04T16:41:27.971Z,6.73
2024-03-04T16:46:31.208Z,6.55
2024-03-04T16:51:34.284Z,6.38
2024-03-04T16:56:46.263Z,6.32
2024-03-04T17:01:50.263Z,6.23
2024-03-04T17:06:53.493Z,6.09
2024-03-04T17:11:57.934Z,5.92
2024-03-04T17:17:02.802Z,5.86
2024-03-04T17:22:06.660Z,5.72
2024-03-04T17:27:11.521Z,5.59
2024-03-04T17:32:14.757Z,5.49
2024-03-04T17:37:17.634Z,5.28
2024-03-04T17:42:22.310Z,5.17
2024-03-04T17:47:25.460Z,5.08
2024-03-04T17:52:29.749Z,5.05
2024-03-04T17:57:34.407Z,4.96
2024-03-04T18:02:37.177Z,4.95
2024-03-04T18:07:40.402Z,4.90
2024-03-04T18:12:45.123Z,4.87
2024-03-04T18:17:48.045Z,4.70
2024-03-04T18:22:51.364Z,4.64
2024-03-04T18:27:56.005Z,4.65
2024-03-04T18:33:02.784Z,4.67
2024-03-04T18:38:05.755Z,4.67
2024-03-04T18:43:15.563Z,4.67
2024-03-04T18:48:20.161Z,4.55
2024-03-04T18:53:23.440Z,4.50
2024-03-04T18:58:29.374Z,4.44
2024-03-04T19:03:32.694Z,4.44
2024-03-04T19:08:35.789Z,4.37
2024-03-04T19:13:40.257Z,4.36
2024-03-04T19:18:42.980Z,4.36
2024-03-04T19:23:46.363Z,4.32
2024-03-04T19:34:19.466Z,4.27
2024-03-04T19:39:22.763Z,4.22
2024-03-04T19:44:34.348Z,4.21
2024-03-04T19:49:39.216Z,4.14
2024-03-04T19:54:43.073Z,4.10
2024-03-04T19:59:53.818Z,3.99
2024-03-04T20:05:01.243Z,3.93
2024-03-04T20:10:10.680Z,3.93
2024-03-04T20:15:20.553Z,3.93
2024-03-04T20:20:24.977Z,3.93
2024-03-04T20:25:42.698Z,3.91
2024-03-04T20:30:52.128Z,3.86
2024-03-04T20:41:23.326Z,3.80
2024-03-04T20:46:25.888Z,3.74
2024-03-04T20:51:30.577Z,3.76
2024-03-04T20:56:34.492Z,3.75
2024-03-04T21:01:37.141Z,3.79
2024-03-04T21:06:39.979Z,3.73
2024-03-04T21:11:44.276Z,3.70
2024-03-04T21:16:46.840Z,3.68
2024-03-04T21:21:49.460Z,3.65
2024-03-04T21:26:53.407Z,3.66
2024-03-04T21:31:56.119Z,3.67
2024-03-04T21:36:58.674Z,3.64
2024-03-04T21:42:02.548Z,3.59
2024-03-04T21:47:05.540Z,3.58
2024-03-04T21:52:08.830Z,3.55
2024-03-04T21:57:12.776Z,3.53
2024-03-04T22:02:15.402Z,3.51
2024-03-04T22:07:17.960Z,3.49
2024-03-04T22:12:21.835Z,3.45
2024-03-04T22:17:24.412Z,3.45
2024-03-04T22:22:27.413Z,3.41
2024-03-04T22:27:31.735Z,3.35
2024-03-04T22:32:34.325Z,3.34
2024-03-04T22:37:36.934Z,3.34
2024-03-04T22:42:40.856Z,3.35
2024-03-04T22:47:43.455Z,3.33
2024-03-04T22:52:46.121Z,3.34
2024-03-04T22:57:50.064Z,3.30
2024-03-04T23:02:52.955Z,3.33
2024-03-04T23:07:55.629Z,3.34
2024-03-04T23:12:59.495Z,3.32
2024-03-04T23:18:02.524Z,3.33
2024-03-04T23:23:07.054Z,3.37
2024-03-04T23:28:11.419Z,3.35
2024-03-04T23:33:13.965Z,3.35
2024-03-04T23:38:16.746Z,3.37
2024-03-04T23:43:20.717Z,3.38
2024-03-04T23:48:23.331Z,3.43
2024-03-04T23:53:32.501Z,3.43
2024-03-04T23:58:36.412Z,3.44
